sensor_id;sensor_type;location;lat;lon;timestamp;P1;P2;P0
65012;PMS5003;51715;39.432;-77.518;2023-03-30T00:00:11;4;3;
65012;PMS5003;51715;39.432;-77.518;2023-03-30T00:02:40;3;3;
65012;PMS5003;51715;39.432;-77.518;2023-03-30T00:05:09;6;6;
65012;PMS5003;51715;39.432;-77.518;2023-03-30T00:07:38;3;3;
65012;PMS5003;51715;39.432;-77.518;2023-03-30T00:10:07;3;3;
65012;PMS5003;51715;39.432;-77.518;2023-03-30T00:12:38;3;3;
65012;PMS5003;51715;39.432;-77.518;2023-03-30T00:15:08;4;3;
65012;PMS5003;51715;39.432;-77.518;2023-03-30T00:17:38;4;4;
65012;PMS5003;51715;39.432;-77.518;2023-03-30T00:20:07;5;3;
65012;PMS5003;51715;39.432;-77.518;2023-03-30T00:22:37;3;2;
65012;PMS5003;51715;39.432;-77.518;2023-03-30T00:25:06;2;2;
65012;PMS5003;51715;39.432;-77.518;2023-03-30T00:27:37;2;2;
65012;PMS5003;51715;39.432;-77.518;2023-03-30T00:30:07;3;2;
65012;PMS5003;51715;39.432;-77.518;2023-03-30T00:32:39;4;4;
65012;PMS5003;51715;39.432;-77.518;2023-03-30T00:35:08;2;2;
65012;PMS5003;51715;39.432;-77.518;2023-03-30T00:37:37;1;1;
65012;PMS5003;51715;39.432;-77.518;2023-03-30T00:40:06;3;3;
65012;PMS5003;51715;39.432;-77.518;2023-03-30T00:42:41;3;3;
65012;PMS5003;51715;39.432;-77.518;2023-03-30T00:45:17;2;2;
65012;PMS5003;51715;39.432;-77.518;2023-03-30T00:47:51;1;1;
65012;PMS5003;51715;39.432;-77.518;2023-03-30T00:50:26;2;2;
65012;PMS5003;51715;39.432;-77.518;2023-03-30T00:52:57;1;1;
65012;PMS5003;51715;39.432;-77.518;2023-03-30T00:55:27;3;3;
65012;PMS5003;51715;39.432;-77.518;2023-03-30T00:57:58;1;1;
65012;PMS5003;51715;39.432;-77.518;2023-03-30T01:00:27;5;4;
65012;PMS5003;51715;39.432;-77.518;2023-03-30T01:02:57;3;3;
65012;PMS5003;51715;39.432;-77.518;2023-03-30T01:05:29;4;3;
65012;PMS5003;51715;39.432;-77.518;2023-03-30T01:07:58;4;3;
65012;PMS5003;51715;39.432;-77.518;2023-03-30T01:10:28;2;2;
65012;PMS5003;51715;39.432;-77.518;2023-03-30T01:12:57;4;4;
65012;PMS5003;51715;39.432;-77.518;2023-03-30T01:15:26;3;3;
65012;PMS5003;51715;39.432;-77.518;2023-03-30T01:18:04;3;3;
65012;PMS5003;51715;39.432;-77.518;2023-03-30T01:20:57;3;3;
65012;PMS5003;51715;39.432;-77.518;2023-03-30T01:23:47;3;3;
65012;PMS5003;51715;39.432;-77.518;2023-03-30T01:26:48;4;3;
65012;PMS5003;51715;39.432;-77.518;2023-03-30T01:29:23;4;4;
65012;PMS5003;51715;39.432;-77.518;2023-03-30T01:32:09;3;3;
65012;PMS5003;51715;39.432;-77.518;2023-03-30T01:35:02;4;3;
65012;PMS5003;51715;39.432;-77.518;2023-03-30T01:37:56;3;3;
65012;PMS5003;51715;39.432;-77.518;2023-03-30T01:41:21;4;4;
65012;PMS5003;51715;39.432;-77.518;2023-03-30T01:44:00;4;4;
65012;PMS5003;51715;39.432;-77.518;2023-03-30T01:46:37;3;2;
65012;PMS5003;51715;39.432;-77.518;2023-03-30T01:49:12;3;3;
65012;PMS5003;51715;39.432;-77.518;2023-03-30T01:51:50;4;2;
65012;PMS5003;51715;39.432;-77.518;2023-03-30T01:54:28;3;3;
65012;PMS5003;51715;39.432;-77.518;2023-03-30T01:57:02;7;5;
65012;PMS5003;51715;39.432;-77.518;2023-03-30T01:59:33;5;4;
65012;PMS5003;51715;39.432;-77.518;2023-03-30T02:02:07;5;4;
65012;PMS5003;51715;39.432;-77.518;2023-03-30T02:04:38;4;3;
65012;PMS5003;51715;39.432;-77.518;2023-03-30T02:07:09;4;4;
65012;PMS5003;51715;39.432;-77.518;2023-03-30T02:09:41;4;3;
65012;PMS5003;51715;39.432;-77.518;2023-03-30T02:12:14;3;3;
65012;PMS5003;51715;39.432;-77.518;2023-03-30T02:14:44;3;3;
65012;PMS5003;51715;39.432;-77.518;2023-03-30T02:17:15;6;5;
65012;PMS5003;51715;39.432;-77.518;2023-03-30T02:19:47;2;2;
65012;PMS5003;51715;39.432;-77.518;2023-03-30T02:22:17;2;2;
65012;PMS5003;51715;39.432;-77.518;2023-03-30T02:24:47;3;3;
65012;PMS5003;51715;39.432;-77.518;2023-03-30T02:27:19;3;3;
65012;PMS5003;51715;39.432;-77.518;2023-03-30T02:29:48;5;5;
65012;PMS5003;51715;39.432;-77.518;2023-03-30T02:32:18;6;4;
65012;PMS5003;51715;39.432;-77.518;2023-03-30T02:34:54;2;2;
65012;PMS5003;51715;39.432;-77.518;2023-03-30T02:37:44;3;3;
65012;PMS5003;51715;39.432;-77.518;2023-03-30T02:40:28;6;6;
65012;PMS5003;51715;39.432;-77.518;2023-03-30T02:43:06;2;2;
65012;PMS5003;51715;39.432;-77.518;2023-03-30T02:45:50;4;4;
65012;PMS5003;51715;39.432;-77.518;2023-03-30T02:48:32;5;5;
65012;PMS5003;51715;39.432;-77.518;2023-03-30T02:51:10;4;4;
65012;PMS5003;51715;39.432;-77.518;2023-03-30T02:53:51;4;4;
65012;PMS5003;51715;39.432;-77.518;2023-03-30T02:56:31;4;4;
65012;PMS5003;51715;39.432;-77.518;2023-03-30T02:59:04;3;3;
65012;PMS5003;51715;39.432;-77.518;2023-03-30T03:01:39;5;5;
65012;PMS5003;51715;39.432;-77.518;2023-03-30T03:04:12;6;6;
65012;PMS5003;51715;39.432;-77.518;2023-03-30T03:06:43;5;5;
65012;PMS5003;51715;39.432;-77.518;2023-03-30T03:09:14;6;5;
65012;PMS5003;51715;39.432;-77.518;2023-03-30T03:11:43;7;7;
65012;PMS5003;51715;39.432;-77.518;2023-03-30T03:14:11;8;6;
65012;PMS5003;51715;39.432;-77.518;2023-03-30T03:16:41;6;6;
65012;PMS5003;51715;39.432;-77.518;2023-03-30T03:19:10;6;6;
65012;PMS5003;51715;39.432;-77.518;2023-03-30T03:21:38;7;7;
65012;PMS5003;51715;39.432;-77.518;2023-03-30T03:24:08;7;7;
65012;PMS5003;51715;39.432;-77.518;2023-03-30T03:26:37;11;7;
65012;PMS5003;51715;39.432;-77.518;2023-03-30T03:29:07;10;9;
65012;PMS5003;51715;39.432;-77.518;2023-03-30T03:31:38;8;8;
65012;PMS5003;51715;39.432;-77.518;2023-03-30T03:34:06;8;8;
65012;PMS5003;51715;39.432;-77.518;2023-03-30T03:36:35;8;8;
65012;PMS5003;51715;39.432;-77.518;2023-03-30T03:39:04;10;10;
65012;PMS5003;51715;39.432;-77.518;2023-03-30T03:41:33;9;8;
65012;PMS5003;51715;39.432;-77.518;2023-03-30T03:44:02;7;7;
65012;PMS5003;51715;39.432;-77.518;2023-03-30T03:46:31;8;8;
65012;PMS5003;51715;39.432;-77.518;2023-03-30T03:48:59;8;8;
65012;PMS5003;51715;39.432;-77.518;2023-03-30T03:51:27;7;5;
65012;PMS5003;51715;39.432;-77.518;2023-03-30T03:53:56;7;7;
65012;PMS5003;51715;39.432;-77.518;2023-03-30T03:56:25;6;6;
65012;PMS5003;51715;39.432;-77.518;2023-03-30T03:58:54;8;6;
65012;PMS5003;51715;39.432;-77.518;2023-03-30T04:04:12;7;5;
65012;PMS5003;51715;39.432;-77.518;2023-03-30T04:06:41;5;5;
65012;PMS5003;51715;39.432;-77.518;2023-03-30T04:09:10;8;8;
65012;PMS5003;51715;39.432;-77.518;2023-03-30T04:11:39;7;7;
65012;PMS5003;51715;39.432;-77.518;2023-03-30T04:14:09;8;7;
65012;PMS5003;51715;39.432;-77.518;2023-03-30T04:16:37;9;8;
65012;PMS5003;51715;39.432;-77.518;2023-03-30T04:19:05;10;6;
65012;PMS5003;51715;39.432;-77.518;2023-03-30T04:21:34;6;6;
65012;PMS5003;51715;39.432;-77.518;2023-03-30T04:24:03;9;8;
65012;PMS5003;51715;39.432;-77.518;2023-03-30T04:26:32;9;6;
65012;PMS5003;51715;39.432;-77.518;2023-03-30T04:29:00;4;4;
65012;PMS5003;51715;39.432;-77.518;2023-03-30T04:31:29;5;5;
65012;PMS5003;51715;39.432;-77.518;2023-03-30T04:33:58;6;6;
65012;PMS5003;51715;39.432;-77.518;2023-03-30T04:36:26;7;6;
65012;PMS5003;51715;39.432;-77.518;2023-03-30T04:38:55;6;5;
65012;PMS5003;51715;39.432;-77.518;2023-03-30T04:41:25;8;5;
65012;PMS5003;51715;39.432;-77.518;2023-03-30T04:43:55;5;5;
65012;PMS5003;51715;39.432;-77.518;2023-03-30T04:46:23;5;5;
65012;PMS5003;51715;39.432;-77.518;2023-03-30T04:48:50;5;5;
65012;PMS5003;51715;39.432;-77.518;2023-03-30T04:51:18;4;3;
65012;PMS5003;51715;39.432;-77.518;2023-03-30T04:53:46;3;3;
65012;PMS5003;51715;39.432;-77.518;2023-03-30T04:56:14;2;2;
65012;PMS5003;51715;39.432;-77.518;2023-03-30T04:58:44;1;1;
65012;PMS5003;51715;39.432;-77.518;2023-03-30T05:01:12;1;1;
65012;PMS5003;51715;39.432;-77.518;2023-03-30T05:03:41;2;2;
65012;PMS5003;51715;39.432;-77.518;2023-03-30T05:06:13;3;3;
65012;PMS5003;51715;39.432;-77.518;2023-03-30T05:08:43;1;1;
65012;PMS5003;51715;39.432;-77.518;2023-03-30T05:11:11;2;2;
65012;PMS5003;51715;39.432;-77.518;2023-03-30T05:13:39;1;1;
65012;PMS5003;51715;39.432;-77.518;2023-03-30T05:16:08;1;1;
65012;PMS5003;51715;39.432;-77.518;2023-03-30T05:18:41;0;0;
65012;PMS5003;51715;39.432;-77.518;2023-03-30T05:21:15;1;1;
65012;PMS5003;51715;39.432;-77.518;2023-03-30T05:23:44;0;0;
65012;PMS5003;51715;39.432;-77.518;2023-03-30T05:26:13;3;3;
65012;PMS5003;51715;39.432;-77.518;2023-03-30T05:28:41;1;1;
65012;PMS5003;51715;39.432;-77.518;2023-03-30T05:31:10;1;1;
65012;PMS5003;51715;39.432;-77.518;2023-03-30T05:33:38;1;1;
65012;PMS5003;51715;39.432;-77.518;2023-03-30T05:36:07;2;2;
65012;PMS5003;51715;39.432;-77.518;2023-03-30T05:38:36;1;1;
65012;PMS5003;51715;39.432;-77.518;2023-03-30T05:41:06;2;2;
65012;PMS5003;51715;39.432;-77.518;2023-03-30T05:43:34;2;2;
65012;PMS5003;51715;39.432;-77.518;2023-03-30T05:46:03;4;4;
65012;PMS5003;51715;39.432;-77.518;2023-03-30T05:48:33;3;2;
65012;PMS5003;51715;39.432;-77.518;2023-03-30T05:51:01;4;4;
65012;PMS5003;51715;39.432;-77.518;2023-03-30T05:53:29;6;5;
65012;PMS5003;51715;39.432;-77.518;2023-03-30T05:55:57;4;4;
65012;PMS5003;51715;39.432;-77.518;2023-03-30T05:58:26;3;3;
65012;PMS5003;51715;39.432;-77.518;2023-03-30T06:00:56;5;5;
65012;PMS5003;51715;39.432;-77.518;2023-03-30T06:03:24;6;6;
65012;PMS5003;51715;39.432;-77.518;2023-03-30T06:05:52;7;6;
65012;PMS5003;51715;39.432;-77.518;2023-03-30T06:08:20;7;6;
65012;PMS5003;51715;39.432;-77.518;2023-03-30T06:10:51;5;5;
65012;PMS5003;51715;39.432;-77.518;2023-03-30T06:13:20;6;4;
65012;PMS5003;51715;39.432;-77.518;2023-03-30T06:15:49;7;6;
65012;PMS5003;51715;39.432;-77.518;2023-03-30T06:18:17;5;5;
65012;PMS5003;51715;39.432;-77.518;2023-03-30T06:20:46;6;5;
65012;PMS5003;51715;39.432;-77.518;2023-03-30T06:23:15;7;7;
65012;PMS5003;51715;39.432;-77.518;2023-03-30T06:25:44;6;6;
65012;PMS5003;51715;39.432;-77.518;2023-03-30T06:28:13;5;5;
65012;PMS5003;51715;39.432;-77.518;2023-03-30T06:30:41;5;5;
65012;PMS5003;51715;39.432;-77.518;2023-03-30T06:33:09;8;8;
65012;PMS5003;51715;39.432;-77.518;2023-03-30T06:35:38;5;5;
65012;PMS5003;51715;39.432;-77.518;2023-03-30T06:38:10;7;7;
65012;PMS5003;51715;39.432;-77.518;2023-03-30T06:40:38;6;6;
65012;PMS5003;51715;39.432;-77.518;2023-03-30T06:43:06;7;7;
65012;PMS5003;51715;39.432;-77.518;2023-03-30T06:45:40;7;6;
65012;PMS5003;51715;39.432;-77.518;2023-03-30T06:48:14;5;5;
65012;PMS5003;51715;39.432;-77.518;2023-03-30T06:50:44;7;6;
65012;PMS5003;51715;39.432;-77.518;2023-03-30T06:53:12;7;7;
65012;PMS5003;51715;39.432;-77.518;2023-03-30T06:55:41;10;8;
65012;PMS5003;51715;39.432;-77.518;2023-03-30T06:58:09;9;9;
65012;PMS5003;51715;39.432;-77.518;2023-03-30T07:00:37;7;5;
65012;PMS5003;51715;39.432;-77.518;2023-03-30T07:03:06;9;7;
65012;PMS5003;51715;39.432;-77.518;2023-03-30T07:05:34;8;8;
65012;PMS5003;51715;39.432;-77.518;2023-03-30T07:08:02;7;7;
65012;PMS5003;51715;39.432;-77.518;2023-03-30T07:10:32;6;6;
65012;PMS5003;51715;39.432;-77.518;2023-03-30T07:12:59;6;6;
65012;PMS5003;51715;39.432;-77.518;2023-03-30T07:15:27;6;6;
65012;PMS5003;51715;39.432;-77.518;2023-03-30T07:17:55;8;6;
65012;PMS5003;51715;39.432;-77.518;2023-03-30T07:20:23;8;8;
65012;PMS5003;51715;39.432;-77.518;2023-03-30T07:22:51;6;6;
65012;PMS5003;51715;39.432;-77.518;2023-03-30T07:25:19;6;5;
65012;PMS5003;51715;39.432;-77.518;2023-03-30T07:27:47;5;5;
65012;PMS5003;51715;39.432;-77.518;2023-03-30T07:30:15;4;4;
65012;PMS5003;51715;39.432;-77.518;2023-03-30T07:32:44;5;5;
65012;PMS5003;51715;39.432;-77.518;2023-03-30T07:35:11;7;7;
65012;PMS5003;51715;39.432;-77.518;2023-03-30T07:37:40;9;9;
65012;PMS5003;51715;39.432;-77.518;2023-03-30T07:40:09;10;8;
65012;PMS5003;51715;39.432;-77.518;2023-03-30T07:42:37;9;6;
65012;PMS5003;51715;39.432;-77.518;2023-03-30T07:45:06;7;7;
65012;PMS5003;51715;39.432;-77.518;2023-03-30T07:47:35;7;6;
65012;PMS5003;51715;39.432;-77.518;2023-03-30T07:50:05;4;4;
65012;PMS5003;51715;39.432;-77.518;2023-03-30T07:52:34;8;6;
65012;PMS5003;51715;39.432;-77.518;2023-03-30T07:55:02;7;7;
65012;PMS5003;51715;39.432;-77.518;2023-03-30T07:57:31;11;9;
65012;PMS5003;51715;39.432;-77.518;2023-03-30T07:59:59;7;6;
65012;PMS5003;51715;39.432;-77.518;2023-03-30T08:02:27;6;6;
65012;PMS5003;51715;39.432;-77.518;2023-03-30T08:04:55;5;5;
65012;PMS5003;51715;39.432;-77.518;2023-03-30T08:07:24;7;6;
65012;PMS5003;51715;39.432;-77.518;2023-03-30T08:09:53;5;5;
65012;PMS5003;51715;39.432;-77.518;2023-03-30T08:12:21;7;7;
65012;PMS5003;51715;39.432;-77.518;2023-03-30T08:14:50;6;5;
65012;PMS5003;51715;39.432;-77.518;2023-03-30T08:17:19;9;8;
65012;PMS5003;51715;39.432;-77.518;2023-03-30T08:19:47;7;7;
65012;PMS5003;51715;39.432;-77.518;2023-03-30T08:22:16;8;7;
65012;PMS5003;51715;39.432;-77.518;2023-03-30T08:24:44;7;4;
65012;PMS5003;51715;39.432;-77.518;2023-03-30T08:27:13;9;9;
65012;PMS5003;51715;39.432;-77.518;2023-03-30T08:29:41;5;4;
65012;PMS5003;51715;39.432;-77.518;2023-03-30T08:32:09;7;7;
65012;PMS5003;51715;39.432;-77.518;2023-03-30T08:34:37;7;6;
65012;PMS5003;51715;39.432;-77.518;2023-03-30T08:37:06;6;6;
65012;PMS5003;51715;39.432;-77.518;2023-03-30T08:39:34;6;6;
65012;PMS5003;51715;39.432;-77.518;2023-03-30T08:42:06;6;6;
65012;PMS5003;51715;39.432;-77.518;2023-03-30T08:44:42;6;6;
65012;PMS5003;51715;39.432;-77.518;2023-03-30T08:47:15;7;7;
65012;PMS5003;51715;39.432;-77.518;2023-03-30T08:49:50;6;6;
65012;PMS5003;51715;39.432;-77.518;2023-03-30T08:52:25;8;8;
65012;PMS5003;51715;39.432;-77.518;2023-03-30T08:54:53;10;10;
65012;PMS5003;51715;39.432;-77.518;2023-03-30T08:57:25;9;8;
65012;PMS5003;51715;39.432;-77.518;2023-03-30T09:00:09;6;6;
65012;PMS5003;51715;39.432;-77.518;2023-03-30T09:02:46;6;6;
65012;PMS5003;51715;39.432;-77.518;2023-03-30T09:05:19;7;7;
65012;PMS5003;51715;39.432;-77.518;2023-03-30T09:07:54;9;7;
65012;PMS5003;51715;39.432;-77.518;2023-03-30T09:10:29;7;6;
65012;PMS5003;51715;39.432;-77.518;2023-03-30T09:13:02;6;5;
65012;PMS5003;51715;39.432;-77.518;2023-03-30T09:15:33;9;7;
65012;PMS5003;51715;39.432;-77.518;2023-03-30T09:18:08;10;6;
65012;PMS5003;51715;39.432;-77.518;2023-03-30T09:20:41;8;7;
65012;PMS5003;51715;39.432;-77.518;2023-03-30T09:23:13;8;8;
65012;PMS5003;51715;39.432;-77.518;2023-03-30T09:25:45;4;4;
65012;PMS5003;51715;39.432;-77.518;2023-03-30T09:28:22;6;5;
65012;PMS5003;51715;39.432;-77.518;2023-03-30T09:30:59;11;8;
65012;PMS5003;51715;39.432;-77.518;2023-03-30T09:33:32;8;6;
65012;PMS5003;51715;39.432;-77.518;2023-03-30T09:36:09;5;5;
65012;PMS5003;51715;39.432;-77.518;2023-03-30T09:38:40;9;7;
65012;PMS5003;51715;39.432;-77.518;2023-03-30T09:41:17;8;8;
65012;PMS5003;51715;39.432;-77.518;2023-03-30T09:43:57;10;8;
65012;PMS5003;51715;39.432;-77.518;2023-03-30T09:46:27;8;7;
65012;PMS5003;51715;39.432;-77.518;2023-03-30T09:48:55;8;8;
65012;PMS5003;51715;39.432;-77.518;2023-03-30T09:51:51;7;5;
65012;PMS5003;51715;39.432;-77.518;2023-03-30T09:54:22;8;8;
65012;PMS5003;51715;39.432;-77.518;2023-03-30T09:56:50;10;10;
65012;PMS5003;51715;39.432;-77.518;2023-03-30T09:59:27;11;10;
65012;PMS5003;51715;39.432;-77.518;2023-03-30T10:02:28;9;7;
65012;PMS5003;51715;39.432;-77.518;2023-03-30T10:04:58;8;7;
65012;PMS5003;51715;39.432;-77.518;2023-03-30T10:07:29;7;7;
65012;PMS5003;51715;39.432;-77.518;2023-03-30T10:09:59;8;8;
65012;PMS5003;51715;39.432;-77.518;2023-03-30T10:12:38;6;6;
65012;PMS5003;51715;39.432;-77.518;2023-03-30T10:15:12;9;8;
65012;PMS5003;51715;39.432;-77.518;2023-03-30T10:17:44;8;7;
65012;PMS5003;51715;39.432;-77.518;2023-03-30T10:20:16;8;7;
65012;PMS5003;51715;39.432;-77.518;2023-03-30T10:22:51;12;10;
65012;PMS5003;51715;39.432;-77.518;2023-03-30T10:25:22;8;8;
65012;PMS5003;51715;39.432;-77.518;2023-03-30T10:27:54;7;7;
65012;PMS5003;51715;39.432;-77.518;2023-03-30T10:30:24;10;9;
65012;PMS5003;51715;39.432;-77.518;2023-03-30T10:32:53;11;9;
65012;PMS5003;51715;39.432;-77.518;2023-03-30T10:35:24;12;12;
65012;PMS5003;51715;39.432;-77.518;2023-03-30T10:37:58;10;9;
65012;PMS5003;51715;39.432;-77.518;2023-03-30T10:40:32;8;8;
65012;PMS5003;51715;39.432;-77.518;2023-03-30T10:43:02;10;8;
65012;PMS5003;51715;39.432;-77.518;2023-03-30T10:45:35;8;5;
65012;PMS5003;51715;39.432;-77.518;2023-03-30T10:48:12;10;10;
65012;PMS5003;51715;39.432;-77.518;2023-03-30T10:50:54;7;7;
65012;PMS5003;51715;39.432;-77.518;2023-03-30T10:53:32;10;9;
65012;PMS5003;51715;39.432;-77.518;2023-03-30T10:56:08;10;10;
65012;PMS5003;51715;39.432;-77.518;2023-03-30T10:58:53;11;9;
65012;PMS5003;51715;39.432;-77.518;2023-03-30T11:01:40;7;7;
65012;PMS5003;51715;39.432;-77.518;2023-03-30T11:04:20;8;7;
65012;PMS5003;51715;39.432;-77.518;2023-03-30T11:06:55;8;7;
65012;PMS5003;51715;39.432;-77.518;2023-03-30T11:09:27;8;8;
65012;PMS5003;51715;39.432;-77.518;2023-03-30T11:12:02;8;8;
65012;PMS5003;51715;39.432;-77.518;2023-03-30T11:14:41;10;9;
65012;PMS5003;51715;39.432;-77.518;2023-03-30T11:17:17;10;8;
65012;PMS5003;51715;39.432;-77.518;2023-03-30T11:19:50;7;7;
65012;PMS5003;51715;39.432;-77.518;2023-03-30T11:22:24;9;8;
65012;PMS5003;51715;39.432;-77.518;2023-03-30T11:25:00;10;10;
65012;PMS5003;51715;39.432;-77.518;2023-03-30T11:27:33;9;9;
65012;PMS5003;51715;39.432;-77.518;2023-03-30T11:30:07;8;6;
65012;PMS5003;51715;39.432;-77.518;2023-03-30T11:32:43;10;8;
65012;PMS5003;51715;39.432;-77.518;2023-03-30T11:35:19;12;8;
65012;PMS5003;51715;39.432;-77.518;2023-03-30T11:37:56;8;8;
65012;PMS5003;51715;39.432;-77.518;2023-03-30T11:40:30;9;7;
65012;PMS5003;51715;39.432;-77.518;2023-03-30T11:43:08;10;10;
65012;PMS5003;51715;39.432;-77.518;2023-03-30T11:45:40;11;9;
65012;PMS5003;51715;39.432;-77.518;2023-03-30T11:48:27;8;7;
65012;PMS5003;51715;39.432;-77.518;2023-03-30T11:51:11;7;6;
65012;PMS5003;51715;39.432;-77.518;2023-03-30T11:53:52;8;8;
65012;PMS5003;51715;39.432;-77.518;2023-03-30T11:56:28;8;8;
65012;PMS5003;51715;39.432;-77.518;2023-03-30T11:59:03;13;10;
65012;PMS5003;51715;39.432;-77.518;2023-03-30T12:01:42;10;8;
65012;PMS5003;51715;39.432;-77.518;2023-03-30T12:04:24;8;7;
65012;PMS5003;51715;39.432;-77.518;2023-03-30T12:06:58;13;10;
65012;PMS5003;51715;39.432;-77.518;2023-03-30T12:09:29;8;8;
65012;PMS5003;51715;39.432;-77.518;2023-03-30T12:12:02;8;5;
65012;PMS5003;51715;39.432;-77.518;2023-03-30T12:14:38;8;7;
65012;PMS5003;51715;39.432;-77.518;2023-03-30T12:17:22;10;9;
65012;PMS5003;51715;39.432;-77.518;2023-03-30T12:20:00;7;6;
65012;PMS5003;51715;39.432;-77.518;2023-03-30T12:22:36;9;9;
65012;PMS5003;51715;39.432;-77.518;2023-03-30T12:25:13;9;5;
65012;PMS5003;51715;39.432;-77.518;2023-03-30T12:27:51;10;8;
65012;PMS5003;51715;39.432;-77.518;2023-03-30T12:30:26;9;7;
65012;PMS5003;51715;39.432;-77.518;2023-03-30T12:32:57;10;9;
65012;PMS5003;51715;39.432;-77.518;2023-03-30T12:35:49;11;9;
65012;PMS5003;51715;39.432;-77.518;2023-03-30T12:38:21;13;10;
65012;PMS5003;51715;39.432;-77.518;2023-03-30T12:40:53;6;3;
65012;PMS5003;51715;39.432;-77.518;2023-03-30T12:43:32;6;6;
65012;PMS5003;51715;39.432;-77.518;2023-03-30T12:46:15;13;12;
65012;PMS5003;51715;39.432;-77.518;2023-03-30T12:48:50;6;6;
65012;PMS5003;51715;39.432;-77.518;2023-03-30T12:51:33;10;10;
65012;PMS5003;51715;39.432;-77.518;2023-03-30T12:54:14;8;8;
65012;PMS5003;51715;39.432;-77.518;2023-03-30T12:56:57;5;5;
65012;PMS5003;51715;39.432;-77.518;2023-03-30T12:59:41;4;4;
65012;PMS5003;51715;39.432;-77.518;2023-03-30T13:02:30;4;4;
65012;PMS5003;51715;39.432;-77.518;2023-03-30T13:05:16;5;5;
65012;PMS5003;51715;39.432;-77.518;2023-03-30T13:07:49;7;5;
65012;PMS5003;51715;39.432;-77.518;2023-03-30T13:10:38;4;4;
65012;PMS5003;51715;39.432;-77.518;2023-03-30T13:13:17;9;8;
65012;PMS5003;51715;39.432;-77.518;2023-03-30T13:15:50;6;5;
65012;PMS5003;51715;39.432;-77.518;2023-03-30T13:18:24;5;5;
65012;PMS5003;51715;39.432;-77.518;2023-03-30T13:21:14;6;5;
65012;PMS5003;51715;39.432;-77.518;2023-03-30T13:23:57;6;6;
65012;PMS5003;51715;39.432;-77.518;2023-03-30T13:26:39;5;5;
65012;PMS5003;51715;39.432;-77.518;2023-03-30T13:29:10;5;5;
65012;PMS5003;51715;39.432;-77.518;2023-03-30T13:31:52;9;6;
65012;PMS5003;51715;39.432;-77.518;2023-03-30T13:34:31;6;6;
65012;PMS5003;51715;39.432;-77.518;2023-03-30T13:37:15;5;5;
65012;PMS5003;51715;39.432;-77.518;2023-03-30T13:39:50;4;4;
65012;PMS5003;51715;39.432;-77.518;2023-03-30T13:42:33;4;4;
65012;PMS5003;51715;39.432;-77.518;2023-03-30T13:45:17;7;6;
65012;PMS5003;51715;39.432;-77.518;2023-03-30T13:48:00;8;8;
65012;PMS5003;51715;39.432;-77.518;2023-03-30T13:50:53;7;5;
65012;PMS5003;51715;39.432;-77.518;2023-03-30T13:53:31;3;3;
65012;PMS5003;51715;39.432;-77.518;2023-03-30T13:56:05;7;7;
65012;PMS5003;51715;39.432;-77.518;2023-03-30T13:58:35;6;6;
65012;PMS5003;51715;39.432;-77.518;2023-03-30T14:01:07;6;4;
65012;PMS5003;51715;39.432;-77.518;2023-03-30T14:03:39;5;4;
65012;PMS5003;51715;39.432;-77.518;2023-03-30T14:06:14;6;5;
65012;PMS5003;51715;39.432;-77.518;2023-03-30T14:08:47;4;4;
65012;PMS5003;51715;39.432;-77.518;2023-03-30T14:11:17;6;6;
65012;PMS5003;51715;39.432;-77.518;2023-03-30T14:13:47;6;3;
65012;PMS5003;51715;39.432;-77.518;2023-03-30T14:16:19;7;5;
65012;PMS5003;51715;39.432;-77.518;2023-03-30T14:18:49;6;5;
65012;PMS5003;51715;39.432;-77.518;2023-03-30T14:21:18;6;5;
65012;PMS5003;51715;39.432;-77.518;2023-03-30T14:23:48;4;3;
65012;PMS5003;51715;39.432;-77.518;2023-03-30T14:26:23;5;4;
65012;PMS5003;51715;39.432;-77.518;2023-03-30T14:28:55;5;5;
65012;PMS5003;51715;39.432;-77.518;2023-03-30T14:31:24;6;5;
65012;PMS5003;51715;39.432;-77.518;2023-03-30T14:33:52;5;5;
65012;PMS5003;51715;39.432;-77.518;2023-03-30T14:36:20;8;7;
65012;PMS5003;51715;39.432;-77.518;2023-03-30T14:38:51;4;4;
65012;PMS5003;51715;39.432;-77.518;2023-03-30T14:41:21;5;3;
65012;PMS5003;51715;39.432;-77.518;2023-03-30T14:43:52;5;5;
65012;PMS5003;51715;39.432;-77.518;2023-03-30T14:46:26;5;5;
65012;PMS5003;51715;39.432;-77.518;2023-03-30T14:49:01;6;5;
65012;PMS5003;51715;39.432;-77.518;2023-03-30T14:51:34;5;5;
65012;PMS5003;51715;39.432;-77.518;2023-03-30T14:54:04;5;4;
65012;PMS5003;51715;39.432;-77.518;2023-03-30T14:56:35;6;5;
65012;PMS5003;51715;39.432;-77.518;2023-03-30T14:59:04;3;3;
65012;PMS5003;51715;39.432;-77.518;2023-03-30T15:01:37;5;4;
65012;PMS5003;51715;39.432;-77.518;2023-03-30T15:04:09;4;4;
65012;PMS5003;51715;39.432;-77.518;2023-03-30T15:06:40;4;4;
65012;PMS5003;51715;39.432;-77.518;2023-03-30T15:09:13;2;2;
65012;PMS5003;51715;39.432;-77.518;2023-03-30T15:11:43;3;3;
65012;PMS5003;51715;39.432;-77.518;2023-03-30T15:14:14;5;4;
65012;PMS5003;51715;39.432;-77.518;2023-03-30T15:16:47;5;5;
65012;PMS5003;51715;39.432;-77.518;2023-03-30T15:19:24;4;4;
65012;PMS5003;51715;39.432;-77.518;2023-03-30T15:21:57;2;2;
65012;PMS5003;51715;39.432;-77.518;2023-03-30T15:24:29;4;4;
65012;PMS5003;51715;39.432;-77.518;2023-03-30T15:27:01;5;5;
65012;PMS5003;51715;39.432;-77.518;2023-03-30T15:29:31;3;3;
65012;PMS5003;51715;39.432;-77.518;2023-03-30T15:32:14;3;3;
65012;PMS5003;51715;39.432;-77.518;2023-03-30T15:35:19;2;2;
65012;PMS5003;51715;39.432;-77.518;2023-03-30T15:37:53;5;5;
65012;PMS5003;51715;39.432;-77.518;2023-03-30T15:40:26;7;5;
65012;PMS5003;51715;39.432;-77.518;2023-03-30T15:43:13;4;3;
65012;PMS5003;51715;39.432;-77.518;2023-03-30T15:45:46;4;4;
65012;PMS5003;51715;39.432;-77.518;2023-03-30T15:48:20;5;3;
65012;PMS5003;51715;39.432;-77.518;2023-03-30T15:50:53;4;4;
65012;PMS5003;51715;39.432;-77.518;2023-03-30T15:53:35;4;4;
65012;PMS5003;51715;39.432;-77.518;2023-03-30T15:56:11;5;5;
65012;PMS5003;51715;39.432;-77.518;2023-03-30T15:58:47;4;4;
65012;PMS5003;51715;39.432;-77.518;2023-03-30T16:01:16;5;5;
65012;PMS5003;51715;39.432;-77.518;2023-03-30T16:03:48;3;3;
65012;PMS5003;51715;39.432;-77.518;2023-03-30T16:06:21;5;5;
65012;PMS5003;51715;39.432;-77.518;2023-03-30T16:08:50;8;6;
65012;PMS5003;51715;39.432;-77.518;2023-03-30T16:11:19;4;4;
65012;PMS5003;51715;39.432;-77.518;2023-03-30T16:13:48;7;5;
65012;PMS5003;51715;39.432;-77.518;2023-03-30T16:16:20;6;6;
65012;PMS5003;51715;39.432;-77.518;2023-03-30T16:18:48;5;5;
65012;PMS5003;51715;39.432;-77.518;2023-03-30T16:21:17;6;4;
65012;PMS5003;51715;39.432;-77.518;2023-03-30T16:23:46;6;5;
65012;PMS5003;51715;39.432;-77.518;2023-03-30T16:26:15;4;4;
65012;PMS5003;51715;39.432;-77.518;2023-03-30T16:28:43;4;4;
65012;PMS5003;51715;39.432;-77.518;2023-03-30T16:31:14;9;5;
65012;PMS5003;51715;39.432;-77.518;2023-03-30T16:33:45;6;5;
65012;PMS5003;51715;39.432;-77.518;2023-03-30T16:36:15;2;2;
65012;PMS5003;51715;39.432;-77.518;2023-03-30T16:38:45;3;3;
65012;PMS5003;51715;39.432;-77.518;2023-03-30T16:41:15;3;2;
65012;PMS5003;51715;39.432;-77.518;2023-03-30T16:43:45;6;6;
65012;PMS5003;51715;39.432;-77.518;2023-03-30T16:46:14;3;3;
65012;PMS5003;51715;39.432;-77.518;2023-03-30T16:48:45;6;5;
65012;PMS5003;51715;39.432;-77.518;2023-03-30T16:51:13;1;1;
65012;PMS5003;51715;39.432;-77.518;2023-03-30T16:53:43;7;7;
65012;PMS5003;51715;39.432;-77.518;2023-03-30T16:56:12;6;5;